Time;durP1;ratioP1;P1;durP2;ratioP2;P2;SDS_P1;SDS_P2;PMS_P1;PMS_P2;Temp;Humidity;BMP_temperature;BMP_pressure;BME280_temperature;BME280_humidity;BME280_pressure;Samples;Min_cycle;Max_cycle;Signal;HPM_P1;HPM_P2
2023/09/23 00:01:25;;;;;;;6.33;4.40;;;;;;;;;;5093321;28;20400;-50
2023/09/23 00:03:52;;;;;;;6.53;4.07;;;;;;;;;;5111058;28;20189;-48
2023/09/23 00:06:20;;;;;;;6.70;4.50;;;;;;;;;;5093276;28;20280;-48
2023/09/23 00:08:46;;;;;;;6.63;3.87;;;;;;;;;;5092917;28;20200;-50
2023/09/23 00:11:13;;;;;;;7.40;4.13;;;;;;;;;;5092948;28;20282;-51
2023/09/23 00:13:39;;;;;;;6.23;3.97;;;;;;;;;;5112698;28;20223;-48
2023/09/23 00:16:11;;;;;;;5.40;3.57;;;;;;;;;;5111943;28;20333;-48
2023/09/23 00:18:38;;;;;;;5.57;3.13;;;;;;;;;;5110714;28;20178;-50
2023/09/23 00:21:05;;;;;;;4.10;3.50;;;;;;;;;;5091946;28;20270;-48
2023/09/23 00:23:33;;;;;;;4.00;3.23;;;;;;;;;;5092860;28;20238;-48
2023/09/23 00:26:01;;;;;;;3.43;3.03;;;;;;;;;;5092665;28;20202;-53
2023/09/23 00:28:28;;;;;;;4.70;3.40;;;;;;;;;;5110091;28;20654;-54
2023/09/23 00:30:54;;;;;;;4.20;3.33;;;;;;;;;;5094005;28;20171;-51
2023/09/23 00:33:21;;;;;;;7.47;3.43;;;;;;;;;;5093281;28;20309;-48
2023/09/23 00:35:47;;;;;;;5.47;3.50;;;;;;;;;;5094448;28;20199;-50
2023/09/23 00:38:13;;;;;;;4.90;3.00;;;;;;;;;;5095107;28;20175;-51
2023/09/23 00:40:39;;;;;;;3.50;3.20;;;;;;;;;;5093869;28;20175;-51
2023/09/23 00:43:09;;;;;;;5.87;3.20;;;;;;;;;;5111607;28;20178;-48
2023/09/23 00:45:36;;;;;;;3.93;2.87;;;;;;;;;;5093059;28;20280;-52
2023/09/23 00:48:05;;;;;;;3.90;2.50;;;;;;;;;;5110164;28;20198;-51
2023/09/23 00:50:31;;;;;;;5.03;2.70;;;;;;;;;;5092489;28;20211;-51
2023/09/23 00:52:58;;;;;;;4.57;2.67;;;;;;;;;;5092894;28;20718;-48
2023/09/23 00:55:24;;;;;;;4.13;2.53;;;;;;;;;;5093830;28;20389;-50
2023/09/23 00:57:53;;;;;;;4.17;2.50;;;;;;;;;;5112120;28;20195;-48
2023/09/23 01:00:27;;;;;;;2.83;2.30;;;;;;;;;;5093205;28;20453;-50
2023/09/23 01:02:57;;;;;;;4.03;2.40;;;;;;;;;;5093335;28;20251;-49
2023/09/23 01:05:27;;;;;;;3.53;2.77;;;;;;;;;;5112208;28;20175;-48
2023/09/23 01:07:55;;;;;;;5.17;2.70;;;;;;;;;;5094244;28;20190;-48
2023/09/23 01:10:23;;;;;;;4.87;2.70;;;;;;;;;;5093501;28;20203;-49
2023/09/23 01:12:49;;;;;;;3.70;2.50;;;;;;;;;;5093010;28;20279;-52
2023/09/23 01:15:20;;;;;;;3.23;2.50;;;;;;;;;;5111274;28;20254;-48
2023/09/23 01:17:49;;;;;;;4.40;2.47;;;;;;;;;;5092281;28;20572;-48
2023/09/23 01:20:16;;;;;;;5.90;2.80;;;;;;;;;;5090930;28;20175;-50
2023/09/23 01:22:42;;;;;;;4.53;2.10;;;;;;;;;;5108819;28;20221;-50
2023/09/23 01:25:08;;;;;;;4.20;2.80;;;;;;;;;;5091793;28;20167;-48
2023/09/23 01:27:35;;;;;;;4.03;2.67;;;;;;;;;;5092490;28;20265;-50
2023/09/23 01:30:03;;;;;;;2.83;2.43;;;;;;;;;;5109163;28;20282;-51
2023/09/23 01:32:45;;;;;;;3.77;2.60;;;;;;;;;;5091870;28;20164;-50
2023/09/23 01:35:11;;;;;;;2.57;2.17;;;;;;;;;;5092150;28;20464;-53
2023/09/23 01:37:37;;;;;;;4.13;2.67;;;;;;;;;;5110833;28;20163;-49
2023/09/23 01:40:05;;;;;;;4.03;2.30;;;;;;;;;;5110527;28;20458;-50
2023/09/23 01:42:32;;;;;;;3.53;2.43;;;;;;;;;;5094753;28;20450;-48
2023/09/23 01:45:00;;;;;;;4.23;2.67;;;;;;;;;;5093676;28;20163;-50
2023/09/23 01:47:27;;;;;;;4.93;2.10;;;;;;;;;;5092715;28;20167;-50
2023/09/23 01:49:53;;;;;;;2.50;2.30;;;;;;;;;;5092406;28;20274;-48
2023/09/23 01:52:20;;;;;;;5.23;2.57;;;;;;;;;;5092840;28;20179;-48
2023/09/23 01:54:46;;;;;;;2.80;2.60;;;;;;;;;;5093755;28;20211;-51
2023/09/23 01:57:16;;;;;;;3.10;2.37;;;;;;;;;;5094941;28;20210;-59
2023/09/23 01:59:43;;;;;;;5.10;2.90;;;;;;;;;;5112795;28;20279;-53
2023/09/23 02:02:09;;;;;;;2.63;2.40;;;;;;;;;;5093076;28;20549;-52
2023/09/23 02:04:37;;;;;;;2.90;2.60;;;;;;;;;;5095483;28;20187;-48
2023/09/23 02:07:14;;;;;;;3.07;2.47;;;;;;;;;;5095579;28;20175;-48
2023/09/23 02:09:40;;;;;;;4.57;3.13;;;;;;;;;;5094658;28;20259;-48
2023/09/23 02:12:06;;;;;;;3.07;2.60;;;;;;;;;;5111848;28;20164;-52
2023/09/23 02:14:33;;;;;;;2.70;2.50;;;;;;;;;;5094494;28;20612;-48
2023/09/23 02:16:59;;;;;;;4.30;3.20;;;;;;;;;;5094975;28;20214;-49
2023/09/23 02:19:25;;;;;;;4.10;2.80;;;;;;;;;;5094127;28;20649;-49
2023/09/23 02:21:52;;;;;;;5.40;2.93;;;;;;;;;;5093876;28;20168;-48
2023/09/23 02:24:18;;;;;;;5.23;3.43;;;;;;;;;;5094410;28;20244;-48
2023/09/23 02:26:45;;;;;;;5.43;3.03;;;;;;;;;;5093919;28;20344;-51
2023/09/23 02:29:15;;;;;;;3.63;2.83;;;;;;;;;;5111611;28;20208;-49
2023/09/23 02:31:47;;;;;;;3.80;3.10;;;;;;;;;;5094145;28;20183;-49
2023/09/23 02:34:16;;;;;;;4.80;3.53;;;;;;;;;;5090761;28;20306;-49
2023/09/23 02:36:45;;;;;;;5.60;3.73;;;;;;;;;;5089755;28;20200;-48
2023/09/23 02:39:19;;;;;;;4.50;3.93;;;;;;;;;;5088084;28;20175;-51
2023/09/23 02:41:45;;;;;;;3.57;3.20;;;;;;;;;;5088187;28;20668;-51
2023/09/23 02:44:19;;;;;;;5.70;3.80;;;;;;;;;;5088000;28;20176;-49
2023/09/23 02:46:53;;;;;;;5.13;3.20;;;;;;;;;;5090282;28;20548;-49
2023/09/23 02:49:19;;;;;;;6.97;4.13;;;;;;;;;;5089614;28;20242;-51
2023/09/23 02:51:46;;;;;;;5.00;4.13;;;;;;;;;;5090477;28;20199;-49
2023/09/23 02:54:17;;;;;;;6.40;4.30;;;;;;;;;;5089329;28;20525;-48
2023/09/23 02:56:46;;;;;;;3.97;3.57;;;;;;;;;;5088243;28;20187;-48
2023/09/23 02:59:18;;;;;;;3.93;3.60;;;;;;;;;;5088053;28;20180;-50
2023/09/23 03:01:51;;;;;;;4.50;4.10;;;;;;;;;;5088633;28;20306;-50
2023/09/23 03:04:19;;;;;;;4.77;4.33;;;;;;;;;;5088748;28;20173;-50
2023/09/23 03:06:55;;;;;;;4.50;4.10;;;;;;;;;;5086719;28;20180;-48
2023/09/23 03:09:25;;;;;;;5.17;4.67;;;;;;;;;;5086733;28;20207;-48
2023/09/23 03:11:55;;;;;;;5.27;4.77;;;;;;;;;;5088025;28;20329;-52
2023/09/23 03:14:42;;;;;;;3.87;3.57;;;;;;;;;;5088706;28;20168;-48
2023/09/23 03:17:09;;;;;;;5.63;5.00;;;;;;;;;;5087919;28;20179;-51
2023/09/23 03:19:36;;;;;;;5.13;4.70;;;;;;;;;;5089602;28;20179;-48
2023/09/23 03:22:02;;;;;;;5.53;5.03;;;;;;;;;;5089783;28;20168;-48
2023/09/23 03:24:29;;;;;;;6.70;5.47;;;;;;;;;;5090680;28;20458;-48
2023/09/23 03:27:00;;;;;;;5.30;4.80;;;;;;;;;;5089322;28;20480;-49
2023/09/23 03:29:30;;;;;;;5.53;4.93;;;;;;;;;;5090196;28;20245;-48
2023/09/23 03:31:57;;;;;;;4.70;4.07;;;;;;;;;;5090096;28;20173;-52
2023/09/23 03:34:23;;;;;;;5.20;4.70;;;;;;;;;;5090907;28;20318;-51
2023/09/23 03:36:51;;;;;;;5.60;5.00;;;;;;;;;;5090775;28;20179;-48
2023/09/23 03:39:17;;;;;;;5.63;4.97;;;;;;;;;;5089484;28;20179;-49
2023/09/23 03:41:46;;;;;;;6.57;5.43;;;;;;;;;;5093659;28;20172;-52
2023/09/23 03:44:14;;;;;;;6.20;4.60;;;;;;;;;;5091407;28;20180;-50
2023/09/23 03:46:45;;;;;;;6.27;5.67;;;;;;;;;;5097904;28;20217;-52
2023/09/23 03:49:12;;;;;;;6.73;6.03;;;;;;;;;;5093860;28;20206;-52
2023/09/23 03:51:39;;;;;;;8.57;6.00;;;;;;;;;;5091838;28;20575;-48
2023/09/23 03:54:05;;;;;;;7.30;6.60;;;;;;;;;;5092638;28;20453;-50
2023/09/23 03:56:33;;;;;;;6.43;5.83;;;;;;;;;;5092554;28;20174;-51
2023/09/23 03:58:59;;;;;;;7.40;6.67;;;;;;;;;;5092554;28;20185;-50
2023/09/23 04:01:25;;;;;;;9.33;7.90;;;;;;;;;;5092501;28;20176;-49
2023/09/23 04:03:51;;;;;;;9.03;7.70;;;;;;;;;;5091628;28;20183;-50
2023/09/23 04:06:17;;;;;;;21.17;9.60;;;;;;;;;;5092124;28;20182;-52
2023/09/23 04:08:43;;;;;;;9.37;8.43;;;;;;;;;;5091601;28;20310;-48
2023/09/23 04:11:10;;;;;;;8.60;7.60;;;;;;;;;;5091992;28;20254;-49
2023/09/23 04:13:37;;;;;;;9.23;8.33;;;;;;;;;;5091578;28;20172;-52
2023/09/23 04:16:05;;;;;;;9.93;8.97;;;;;;;;;;5091626;28;20207;-49
2023/09/23 04:18:32;;;;;;;11.67;9.30;;;;;;;;;;5091802;28;20321;-49
2023/09/23 04:20:59;;;;;;;10.43;9.43;;;;;;;;;;5093524;28;20190;-50
2023/09/23 04:23:25;;;;;;;10.43;8.50;;;;;;;;;;5094483;28;20239;-49
2023/09/23 04:25:51;;;;;;;10.73;9.33;;;;;;;;;;5093271;28;20659;-48
2023/09/23 04:28:18;;;;;;;9.53;8.63;;;;;;;;;;5091030;28;20200;-50
2023/09/23 04:30:45;;;;;;;11.53;10.53;;;;;;;;;;5090993;28;20607;-53
2023/09/23 04:33:12;;;;;;;10.90;9.67;;;;;;;;;;5096018;28;20231;-50
2023/09/23 04:35:38;;;;;;;12.27;10.97;;;;;;;;;;5094507;28;20180;-51
2023/09/23 04:38:04;;;;;;;11.90;10.70;;;;;;;;;;5111563;28;20160;-51
2023/09/23 04:40:31;;;;;;;11.27;9.63;;;;;;;;;;5094268;28;20172;-48
2023/09/23 04:42:57;;;;;;;11.80;10.47;;;;;;;;;;5094072;28;20182;-51
2023/09/23 04:45:24;;;;;;;12.10;10.70;;;;;;;;;;5094878;28;20262;-51
2023/09/23 04:47:50;;;;;;;10.13;9.07;;;;;;;;;;5112128;28;20177;-48
2023/09/23 04:50:17;;;;;;;11.73;10.47;;;;;;;;;;5094961;28;20229;-49
2023/09/23 04:52:44;;;;;;;13.17;9.27;;;;;;;;;;5111914;28;20163;-49
2023/09/23 04:55:10;;;;;;;11.87;10.10;;;;;;;;;;5095781;28;20175;-48
2023/09/23 04:57:36;;;;;;;12.33;10.17;;;;;;;;;;5114272;28;20502;-49
2023/09/23 05:00:03;;;;;;;10.60;9.60;;;;;;;;;;5114161;28;20167;-49
2023/09/23 05:02:30;;;;;;;12.53;11.03;;;;;;;;;;5112792;28;20657;-52
2023/09/23 05:04:56;;;;;;;12.60;11.40;;;;;;;;;;5095447;28;20195;-50
2023/09/23 05:07:25;;;;;;;11.90;10.63;;;;;;;;;;5093294;28;20605;-48
2023/09/23 05:09:52;;;;;;;13.53;11.33;;;;;;;;;;5094314;28;20527;-51
2023/09/23 05:12:19;;;;;;;13.87;12.37;;;;;;;;;;5094420;28;20163;-51
2023/09/23 05:14:45;;;;;;;13.80;12.13;;;;;;;;;;5092979;28;20185;-52
2023/09/23 05:17:15;;;;;;;15.03;13.53;;;;;;;;;;5111402;28;20191;-52
2023/09/23 05:19:42;;;;;;;14.43;12.87;;;;;;;;;;5093181;28;20180;-50
2023/09/23 05:22:10;;;;;;;15.40;13.80;;;;;;;;;;5094188;28;20270;-50
2023/09/23 05:24:37;;;;;;;14.17;12.73;;;;;;;;;;5094755;28;20182;-53
2023/09/23 05:27:04;;;;;;;15.03;12.70;;;;;;;;;;5094621;28;20171;-51
2023/09/23 05:29:30;;;;;;;14.20;12.80;;;;;;;;;;5092613;28;20226;-50
2023/09/23 05:31:56;;;;;;;14.00;11.83;;;;;;;;;;5091180;28;20206;-52
2023/09/23 05:34:22;;;;;;;14.20;11.53;;;;;;;;;;5091172;28;20225;-52
2023/09/23 05:36:48;;;;;;;11.27;10.17;;;;;;;;;;5092544;28;20182;-51
2023/09/23 05:39:18;;;;;;;12.07;10.87;;;;;;;;;;5091287;28;20186;-50
2023/09/23 05:41:44;;;;;;;14.13;10.30;;;;;;;;;;5091852;28;20178;-49
2023/09/23 05:44:12;;;;;;;11.07;9.77;;;;;;;;;;5092366;28;20207;-50
2023/09/23 05:46:40;;;;;;;13.87;10.33;;;;;;;;;;5091906;28;20278;-49
2023/09/23 05:49:09;;;;;;;11.27;9.10;;;;;;;;;;5092448;28;20472;-49
2023/09/23 05:51:35;;;;;;;11.07;9.43;;;;;;;;;;5093143;28;20198;-50
2023/09/23 05:54:01;;;;;;;12.13;10.40;;;;;;;;;;5093241;28;20462;-50
2023/09/23 05:56:27;;;;;;;11.53;10.40;;;;;;;;;;5094200;28;20182;-50
2023/09/23 05:58:53;;;;;;;10.70;9.07;;;;;;;;;;5094058;28;20369;-50
2023/09/23 06:01:19;;;;;;;9.87;8.87;;;;;;;;;;5092726;28;20177;-50
2023/09/23 06:03:45;;;;;;;10.07;9.10;;;;;;;;;;5107492;28;20198;-51
2023/09/23 06:06:12;;;;;;;12.07;10.00;;;;;;;;;;5090344;28;20215;-48
2023/09/23 06:08:38;;;;;;;11.47;10.20;;;;;;;;;;5091340;28;20179;-51
2023/09/23 06:11:05;;;;;;;11.77;10.53;;;;;;;;;;5090411;28;20182;-49
2023/09/23 06:13:34;;;;;;;12.83;11.27;;;;;;;;;;5092384;28;20207;-50
2023/09/23 06:16:04;;;;;;;11.47;10.37;;;;;;;;;;5092476;28;20508;-48
2023/09/23 06:18:30;;;;;;;16.67;12.23;;;;;;;;;;5092537;28;20382;-52
2023/09/23 06:21:00;;;;;;;11.83;10.63;;;;;;;;;;5092407;28;20176;-51
2023/09/23 06:23:26;;;;;;;11.30;10.10;;;;;;;;;;5092194;28;20199;-48
2023/09/23 06:25:52;;;;;;;15.83;11.67;;;;;;;;;;5107659;28;20267;-48
2023/09/23 06:28:18;;;;;;;11.37;9.80;;;;;;;;;;5089377;28;20314;-48
2023/09/23 06:30:44;;;;;;;12.37;9.67;;;;;;;;;;5090674;28;20214;-48
2023/09/23 06:33:11;;;;;;;10.57;9.47;;;;;;;;;;5091345;28;20230;-53
2023/09/23 06:35:37;;;;;;;11.20;9.33;;;;;;;;;;5091274;28;20460;-51
2023/09/23 06:38:03;;;;;;;9.03;8.13;;;;;;;;;;5090309;28;20542;-49
2023/09/23 06:40:29;;;;;;;11.63;9.93;;;;;;;;;;5088539;28;20366;-53
2023/09/23 06:42:55;;;;;;;10.70;9.17;;;;;;;;;;5090429;28;20446;-48
2023/09/23 06:45:21;;;;;;;12.90;9.40;;;;;;;;;;5091349;28;20632;-49
2023/09/23 06:47:47;;;;;;;12.30;10.30;;;;;;;;;;5089688;28;20211;-49
2023/09/23 06:50:13;;;;;;;11.07;9.73;;;;;;;;;;5090004;28;20205;-50
2023/09/23 06:52:40;;;;;;;10.97;9.80;;;;;;;;;;5087338;28;20174;-50
2023/09/23 06:55:07;;;;;;;11.27;10.03;;;;;;;;;;5089352;28;20370;-49
2023/09/23 06:57:35;;;;;;;9.80;8.80;;;;;;;;;;5107424;28;20175;-51
2023/09/23 07:00:02;;;;;;;8.43;7.60;;;;;;;;;;5090059;28;20464;-51
2023/09/23 07:02:30;;;;;;;7.67;6.87;;;;;;;;;;5089243;28;20293;-53
2023/09/23 07:04:55;;;;;;;7.00;6.07;;;;;;;;;;5107521;28;20171;-48
2023/09/23 07:07:22;;;;;;;6.70;6.10;;;;;;;;;;5088475;28;20175;-49
2023/09/23 07:09:48;;;;;;;6.57;5.40;;;;;;;;;;5087566;28;20222;-48
2023/09/23 07:12:14;;;;;;;6.43;5.83;;;;;;;;;;5088010;28;20466;-50
2023/09/23 07:14:41;;;;;;;5.90;5.30;;;;;;;;;;5089375;28;20171;-51
2023/09/23 07:17:07;;;;;;;5.80;5.30;;;;;;;;;;5089055;28;20519;-48
2023/09/23 07:19:35;;;;;;;5.53;5.03;;;;;;;;;;5087059;28;20190;-49
2023/09/23 07:22:02;;;;;;;6.97;5.27;;;;;;;;;;5105983;28;20232;-50
2023/09/23 07:24:32;;;;;;;6.40;4.60;;;;;;;;;;5107784;28;20168;-51
2023/09/23 07:27:00;;;;;;;5.10;4.20;;;;;;;;;;5108113;28;20415;-49
2023/09/23 07:29:26;;;;;;;5.27;3.47;;;;;;;;;;5088962;28;20566;-48
2023/09/23 07:31:53;;;;;;;4.30;3.77;;;;;;;;;;5084519;28;20378;-50
2023/09/23 07:34:19;;;;;;;4.23;3.60;;;;;;;;;;5087947;28;20230;-49
2023/09/23 07:36:45;;;;;;;3.60;3.30;;;;;;;;;;5108480;28;20372;-49
2023/09/23 07:39:12;;;;;;;3.60;3.30;;;;;;;;;;5108791;28;20348;-51
2023/09/23 07:41:38;;;;;;;4.33;3.93;;;;;;;;;;5089563;28;20557;-50
2023/09/23 07:44:04;;;;;;;3.23;2.83;;;;;;;;;;5088910;28;20193;-50
2023/09/23 07:46:30;;;;;;;3.30;3.00;;;;;;;;;;5108349;28;20286;-48
2023/09/23 07:48:57;;;;;;;3.80;3.40;;;;;;;;;;5091080;28;20205;-51
2023/09/23 07:51:23;;;;;;;3.73;2.90;;;;;;;;;;5090822;28;20266;-49
2023/09/23 07:53:51;;;;;;;3.80;3.03;;;;;;;;;;5090695;28;20270;-50
2023/09/23 07:56:17;;;;;;;4.33;2.90;;;;;;;;;;5090262;28;20167;-50
2023/09/23 07:58:44;;;;;;;5.23;2.87;;;;;;;;;;5090459;28;20551;-50
2023/09/23 08:01:11;;;;;;;4.23;2.47;;;;;;;;;;5090493;28;20348;-50
2023/09/23 08:03:37;;;;;;;2.67;2.47;;;;;;;;;;5089433;28;20371;-49
2023/09/23 08:06:03;;;;;;;3.10;2.30;;;;;;;;;;5087781;28;20551;-48
2023/09/23 08:08:29;;;;;;;2.47;2.27;;;;;;;;;;5088476;28;20588;-51
2023/09/23 08:10:55;;;;;;;3.37;2.60;;;;;;;;;;5107932;28;20588;-52
2023/09/23 08:13:22;;;;;;;2.77;2.37;;;;;;;;;;5090675;28;20270;-49
2023/09/23 08:15:48;;;;;;;3.20;1.80;;;;;;;;;;5108421;28;20163;-49
2023/09/23 08:18:15;;;;;;;2.90;2.00;;;;;;;;;;5089955;28;20461;-50
2023/09/23 08:20:41;;;;;;;3.13;2.00;;;;;;;;;;5105417;28;20182;-52
2023/09/23 08:23:07;;;;;;;3.13;2.20;;;;;;;;;;5103035;28;20573;-49
2023/09/23 08:25:34;;;;;;;2.87;2.00;;;;;;;;;;5086413;28;20342;-52
2023/09/23 08:28:02;;;;;;;4.67;2.10;;;;;;;;;;5102720;28;20294;-49
2023/09/23 08:30:29;;;;;;;3.53;2.03;;;;;;;;;;5084617;28;20263;-48
2023/09/23 08:32:56;;;;;;;5.00;1.87;;;;;;;;;;5085395;28;20311;-50
2023/09/23 08:35:22;;;;;;;3.40;2.27;;;;;;;;;;5086886;28;20187;-48
2023/09/23 08:37:48;;;;;;;3.20;1.83;;;;;;;;;;5088771;28;20236;-49
2023/09/23 08:40:19;;;;;;;2.00;1.80;;;;;;;;;;5089235;28;20207;-48
2023/09/23 08:42:48;;;;;;;3.27;1.93;;;;;;;;;;5088258;28;20178;-50
2023/09/23 08:45:14;;;;;;;3.57;1.93;;;;;;;;;;5089586;28;20183;-48
2023/09/23 08:47:42;;;;;;;1.97;1.53;;;;;;;;;;5106651;28;20197;-50
2023/09/23 08:50:09;;;;;;;5.73;3.07;;;;;;;;;;5087220;28;20562;-49
2023/09/23 08:52:36;;;;;;;4.40;1.87;;;;;;;;;;5086769;28;20237;-53
2023/09/23 08:55:04;;;;;;;2.30;2.10;;;;;;;;;;5086817;28;20450;-50
2023/09/23 08:57:30;;;;;;;3.57;2.60;;;;;;;;;;5087033;28;20599;-48
2023/09/23 08:59:57;;;;;;;2.33;2.13;;;;;;;;;;5107581;28;20221;-50
2023/09/23 09:02:25;;;;;;;4.70;3.00;;;;;;;;;;5088560;28;20167;-49
2023/09/23 09:04:57;;;;;;;4.40;3.10;;;;;;;;;;5087940;28;20259;-48
2023/09/23 09:07:24;;;;;;;2.97;2.73;;;;;;;;;;5104368;28;20191;-48
2023/09/23 09:09:51;;;;;;;3.57;3.20;;;;;;;;;;5086159;28;20214;-49
2023/09/23 09:12:18;;;;;;;4.87;3.30;;;;;;;;;;5106444;28;20209;-50
2023/09/23 09:14:49;;;;;;;3.73;2.63;;;;;;;;;;5087776;28;20416;-48
2023/09/23 09:17:16;;;;;;;3.17;2.90;;;;;;;;;;5105293;28;20214;-49
2023/09/23 09:19:42;;;;;;;4.00;2.93;;;;;;;;;;5086556;28;20400;-48
2023/09/23 09:22:08;;;;;;;3.57;3.20;;;;;;;;;;5087277;28;20266;-49
2023/09/23 09:24:34;;;;;;;4.50;3.57;;;;;;;;;;5087372;28;20277;-53
2023/09/23 09:27:01;;;;;;;3.67;3.37;;;;;;;;;;5086462;28;20194;-52
2023/09/23 09:29:29;;;;;;;6.33;3.10;;;;;;;;;;5087052;28;20206;-52
2023/09/23 09:31:59;;;;;;;4.50;3.30;;;;;;;;;;5085125;28;20171;-50
2023/09/23 09:34:28;;;;;;;3.63;3.33;;;;;;;;;;5103460;28;20231;-48
2023/09/23 09:36:58;;;;;;;2.93;2.67;;;;;;;;;;5085038;28;20526;-50
2023/09/23 09:39:32;;;;;;;3.30;3.00;;;;;;;;;;5082154;28;20556;-51
2023/09/23 09:41:59;;;;;;;3.33;2.73;;;;;;;;;;5082015;28;20172;-48
2023/09/23 09:44:28;;;;;;;3.13;2.40;;;;;;;;;;5101173;28;20248;-49
2023/09/23 09:46:55;;;;;;;4.30;2.90;;;;;;;;;;5086439;28;20369;-52
2023/09/23 09:49:21;;;;;;;3.47;2.00;;;;;;;;;;5103984;28;20342;-52
2023/09/23 09:51:49;;;;;;;4.27;2.10;;;;;;;;;;5084934;28;20270;-50
2023/09/23 09:54:21;;;;;;;2.60;2.40;;;;;;;;;;5084622;28;20545;-48
2023/09/23 09:56:48;;;;;;;4.10;2.17;;;;;;;;;;5083912;28;20613;-48
2023/09/23 09:59:27;;;;;;;2.40;2.20;;;;;;;;;;5085380;28;20171;-48
2023/09/23 10:01:57;;;;;;;4.13;3.50;;;;;;;;;;5101928;28;20312;-50
2023/09/23 10:04:23;;;;;;;4.40;2.60;;;;;;;;;;5086506;28;20275;-51
2023/09/23 10:06:55;;;;;;;2.37;2.10;;;;;;;;;;5083723;28;20435;-49
2023/09/23 10:09:31;;;;;;;4.77;2.47;;;;;;;;;;5086078;28;20414;-49
2023/09/23 10:11:58;;;;;;;2.93;2.20;;;;;;;;;;5087595;28;20167;-50
2023/09/23 10:14:25;;;;;;;3.10;2.70;;;;;;;;;;5105196;28;20179;-49
2023/09/23 10:16:52;;;;;;;2.50;2.30;;;;;;;;;;5105578;28;20183;-49
2023/09/23 10:19:32;;;;;;;2.47;2.17;;;;;;;;;;5103895;28;20491;-50
2023/09/23 10:22:20;;;;;;;2.60;2.40;;;;;;;;;;5102102;28;20239;-50
2023/09/23 10:24:46;;;;;;;2.30;2.03;;;;;;;;;;5108357;28;20167;-52
2023/09/23 10:27:13;;;;;;;4.67;2.63;;;;;;;;;;5081194;28;20244;-50
2023/09/23 10:29:47;;;;;;;2.63;2.43;;;;;;;;;;5093856;28;20228;-51
2023/09/23 10:32:17;;;;;;;3.07;2.70;;;;;;;;;;5093367;28;20168;-50
2023/09/23 10:34:55;;;;;;;3.20;2.73;;;;;;;;;;5071868;28;20385;-50
2023/09/23 10:37:29;;;;;;;5.13;2.83;;;;;;;;;;5077994;28;20369;-52
2023/09/23 10:39:55;;;;;;;3.20;2.90;;;;;;;;;;5081234;28;20492;-48
2023/09/23 10:42:21;;;;;;;2.53;2.10;;;;;;;;;;5081736;28;20175;-53
2023/09/23 10:44:48;;;;;;;4.70;2.37;;;;;;;;;;5082053;28;20172;-48
2023/09/23 10:47:14;;;;;;;2.50;2.30;;;;;;;;;;5081419;28;20200;-48
2023/09/23 10:49:40;;;;;;;3.77;2.17;;;;;;;;;;5080825;28;20242;-50
2023/09/23 10:52:06;;;;;;;3.10;2.43;;;;;;;;;;5086672;28;20336;-48
2023/09/23 10:54:35;;;;;;;2.43;2.23;;;;;;;;;;5085827;28;20258;-49
2023/09/23 10:57:01;;;;;;;3.20;2.67;;;;;;;;;;5083015;28;20705;-49
2023/09/23 10:59:28;;;;;;;3.27;2.30;;;;;;;;;;5081887;28;20238;-50
2023/09/23 11:01:57;;;;;;;3.63;2.33;;;;;;;;;;5082200;28;20176;-49
2023/09/23 11:04:23;;;;;;;2.10;1.83;;;;;;;;;;5078252;28;20211;-49
2023/09/23 11:06:50;;;;;;;2.47;2.17;;;;;;;;;;5079346;28;20211;-51
2023/09/23 11:09:21;;;;;;;4.63;1.97;;;;;;;;;;5080799;28;20242;-50
2023/09/23 11:11:47;;;;;;;2.57;2.03;;;;;;;;;;5082669;28;20172;-48
2023/09/23 11:14:13;;;;;;;2.10;1.90;;;;;;;;;;5082834;28;20157;-51
2023/09/23 11:16:44;;;;;;;2.50;2.30;;;;;;;;;;5083423;28;20403;-49
2023/09/23 11:19:10;;;;;;;2.53;2.33;;;;;;;;;;5086916;28;20180;-54
2023/09/23 11:21:43;;;;;;;3.43;2.77;;;;;;;;;;5090598;28;20187;-50
2023/09/23 11:24:09;;;;;;;2.97;2.27;;;;;;;;;;5090203;28;20181;-50
2023/09/23 11:26:40;;;;;;;2.90;2.60;;;;;;;;;;5089352;28;20200;-50
2023/09/23 11:29:08;;;;;;;3.23;2.93;;;;;;;;;;5090260;28;20204;-50
2023/09/23 11:31:39;;;;;;;2.60;2.23;;;;;;;;;;5089779;28;20229;-49
2023/09/23 11:34:08;;;;;;;5.40;3.00;;;;;;;;;;5090736;28;20227;-50
2023/09/23 11:36:35;;;;;;;5.10;2.80;;;;;;;;;;5091342;28;20270;-49
2023/09/23 11:39:03;;;;;;;4.83;2.90;;;;;;;;;;5092070;28;20595;-51
2023/09/23 11:41:30;;;;;;;2.50;2.30;;;;;;;;;;5090952;28;20172;-50
2023/09/23 11:43:59;;;;;;;2.57;2.37;;;;;;;;;;5092576;28;20183;-51
2023/09/23 11:46:27;;;;;;;2.30;2.10;;;;;;;;;;5091578;28;20433;-51
2023/09/23 11:48:58;;;;;;;4.03;2.10;;;;;;;;;;5092531;28;20179;-53
2023/09/23 11:51:26;;;;;;;2.43;2.23;;;;;;;;;;5092141;28;20172;-51
2023/09/23 11:53:54;;;;;;;3.17;2.67;;;;;;;;;;5089517;28;20175;-53
2023/09/23 11:56:28;;;;;;;3.00;2.70;;;;;;;;;;5088617;28;20184;-51
2023/09/23 11:58:55;;;;;;;4.03;2.73;;;;;;;;;;5089678;28;20729;-52
2023/09/23 12:01:23;;;;;;;4.50;2.60;;;;;;;;;;5089044;28;20247;-54
2023/09/23 12:03:58;;;;;;;3.00;2.77;;;;;;;;;;5090861;28;20594;-52
2023/09/23 12:06:29;;;;;;;6.33;2.73;;;;;;;;;;5091681;28;20643;-52
2023/09/23 12:08:57;;;;;;;4.67;2.80;;;;;;;;;;5089675;28;20171;-49
2023/09/23 12:11:26;;;;;;;4.50;3.00;;;;;;;;;;5089784;28;20732;-50
2023/09/23 12:13:54;;;;;;;3.50;3.17;;;;;;;;;;5087212;28;20172;-53
2023/09/23 12:16:22;;;;;;;4.33;3.50;;;;;;;;;;5088774;28;20164;-49
2023/09/23 12:18:50;;;;;;;7.17;4.13;;;;;;;;;;5089500;28;20598;-51
2023/09/23 12:21:23;;;;;;;6.40;4.43;;;;;;;;;;5087285;28;20257;-51
2023/09/23 12:23:58;;;;;;;4.70;4.30;;;;;;;;;;5090971;28;20572;-48
2023/09/23 12:26:28;;;;;;;7.60;4.90;;;;;;;;;;5092886;28;20176;-49
2023/09/23 12:28:57;;;;;;;5.23;4.73;;;;;;;;;;5092286;28;20279;-50
2023/09/23 12:31:26;;;;;;;5.90;4.37;;;;;;;;;;5092586;28;20469;-48
2023/09/23 12:33:54;;;;;;;4.73;4.27;;;;;;;;;;5100103;28;20634;-48
2023/09/23 12:36:20;;;;;;;7.60;4.63;;;;;;;;;;5095443;28;20217;-49
2023/09/23 12:38:46;;;;;;;5.07;4.03;;;;;;;;;;5096421;28;20242;-51
2023/09/23 12:41:14;;;;;;;10.97;4.90;;;;;;;;;;5094617;28;20210;-51
2023/09/23 12:43:40;;;;;;;4.40;3.83;;;;;;;;;;5095279;28;20198;-50
2023/09/23 12:46:06;;;;;;;5.37;3.73;;;;;;;;;;5094721;28;20734;-51
2023/09/23 12:48:33;;;;;;;6.37;4.17;;;;;;;;;;5095293;28;20171;-55
2023/09/23 12:50:58;;;;;;;7.03;4.30;;;;;;;;;;5095867;28;20211;-49
2023/09/23 12:53:25;;;;;;;3.60;3.30;;;;;;;;;;5114511;28;20227;-51
2023/09/23 12:55:51;;;;;;;3.93;3.50;;;;;;;;;;5094721;28;20270;-49
2023/09/23 12:58:17;;;;;;;4.90;3.53;;;;;;;;;;5112624;28;20170;-51
2023/09/23 13:00:43;;;;;;;5.00;4.20;;;;;;;;;;5094764;28;20171;-53
2023/09/23 13:03:10;;;;;;;4.90;3.97;;;;;;;;;;5093882;28;20236;-50
2023/09/23 13:05:36;;;;;;;5.60;3.43;;;;;;;;;;5093632;28;20817;-54
2023/09/23 13:08:06;;;;;;;5.97;3.97;;;;;;;;;;5110830;28;20178;-51
2023/09/23 13:10:33;;;;;;;5.00;3.47;;;;;;;;;;5093438;28;20688;-52
2023/09/23 13:13:00;;;;;;;5.13;4.03;;;;;;;;;;5094258;28;20542;-52
2023/09/23 13:15:27;;;;;;;4.73;3.50;;;;;;;;;;5112555;28;20254;-53
2023/09/23 13:17:52;;;;;;;3.53;3.20;;;;;;;;;;5093478;28;20295;-51
2023/09/23 13:20:20;;;;;;;5.20;3.50;;;;;;;;;;5111071;28;20227;-52
2023/09/23 13:22:46;;;;;;;4.63;2.40;;;;;;;;;;5092515;28;20266;-49
2023/09/23 13:25:15;;;;;;;4.53;2.50;;;;;;;;;;5092532;28;20271;-51
2023/09/23 13:27:41;;;;;;;6.20;3.20;;;;;;;;;;5090457;28;20671;-49
2023/09/23 13:30:09;;;;;;;3.80;2.83;;;;;;;;;;5090213;28;20237;-49
2023/09/23 13:32:38;;;;;;;3.50;2.97;;;;;;;;;;5091647;28;20171;-50
2023/09/23 13:35:05;;;;;;;4.57;3.07;;;;;;;;;;5091845;28;20283;-50
2023/09/23 13:37:32;;;;;;;3.63;3.17;;;;;;;;;;5108124;28;20543;-49
2023/09/23 13:39:58;;;;;;;3.57;2.80;;;;;;;;;;5090351;28;20195;-52
2023/09/23 13:42:24;;;;;;;3.30;3.00;;;;;;;;;;5108837;28;20171;-50
2023/09/23 13:44:50;;;;;;;5.33;3.23;;;;;;;;;;5092522;28;20174;-51
2023/09/23 13:47:17;;;;;;;5.37;3.47;;;;;;;;;;5092174;28;20179;-48
2023/09/23 13:49:44;;;;;;;3.77;3.30;;;;;;;;;;5091108;28;20199;-51
2023/09/23 13:52:12;;;;;;;3.80;3.30;;;;;;;;;;5092773;28;20166;-52
2023/09/23 13:54:38;;;;;;;3.00;2.80;;;;;;;;;;5094101;28;20217;-48
2023/09/23 13:57:04;;;;;;;3.60;3.30;;;;;;;;;;5094209;28;20268;-52
2023/09/23 13:59:30;;;;;;;2.80;2.50;;;;;;;;;;5093299;28;20186;-51
2023/09/23 14:01:56;;;;;;;7.23;3.00;;;;;;;;;;5092702;28;20176;-53
2023/09/23 14:04:24;;;;;;;5.40;2.60;;;;;;;;;;5107188;28;20168;-49
2023/09/23 14:06:51;;;;;;;5.07;2.93;;;;;;;;;;5091573;28;20204;-52
2023/09/23 14:09:19;;;;;;;4.23;3.20;;;;;;;;;;5109772;28;20513;-50
2023/09/23 14:11:45;;;;;;;4.93;2.67;;;;;;;;;;5092616;28;20164;-49
2023/09/23 14:14:14;;;;;;;4.97;2.77;;;;;;;;;;5092989;28;20183;-51
2023/09/23 14:16:41;;;;;;;5.03;3.23;;;;;;;;;;5110659;28;20178;-52
2023/09/23 14:19:07;;;;;;;4.17;2.27;;;;;;;;;;5093059;28;20164;-50
2023/09/23 14:21:34;;;;;;;3.33;2.53;;;;;;;;;;5091140;28;20171;-52
2023/09/23 14:24:00;;;;;;;3.13;2.23;;;;;;;;;;5090199;28;20168;-48
2023/09/23 14:26:26;;;;;;;6.07;3.00;;;;;;;;;;5090424;28;20167;-50
2023/09/23 14:28:54;;;;;;;2.83;1.70;;;;;;;;;;5090225;28;20266;-52
2023/09/23 14:31:20;;;;;;;2.87;1.97;;;;;;;;;;5088956;28;20176;-48
2023/09/23 14:33:46;;;;;;;3.57;2.10;;;;;;;;;;5085393;28;20226;-48
2023/09/23 14:36:12;;;;;;;5.17;2.10;;;;;;;;;;5085840;28;20190;-48
2023/09/23 14:38:38;;;;;;;4.07;2.20;;;;;;;;;;5085834;28;20160;-50
2023/09/23 14:41:05;;;;;;;3.27;1.83;;;;;;;;;;5083830;28;20175;-50